createdAt,value
2019-04-30T00:00:58.352Z,28.73
2019-04-30T00:03:35.314Z,17.13
2019-04-30T00:06:07.204Z,18.33
2019-04-30T00:08:35.414Z,14.63
2019-04-30T00:11:05.357Z,16.80
2019-04-30T00:13:35.732Z,16.37
2019-04-30T00:16:05.228Z,15.00
2019-04-30T00:18:37.869Z,13.10
2019-04-30T00:21:05.455Z,14.77
2019-04-30T00:23:33.772Z,12.23
2019-04-30T00:26:08.188Z,13.33
2019-04-30T00:28:31.942Z,12.53
2019-04-30T00:31:00.402Z,12.87
2019-04-30T00:33:28.684Z,13.80
2019-04-30T00:35:58.075Z,21.47
2019-04-30T00:38:29.591Z,15.57
2019-04-30T00:41:01.966Z,14.37
2019-04-30T00:43:28.544Z,14.07
2019-04-30T00:45:56.692Z,8.67
2019-04-30T00:48:29.649Z,8.30
2019-04-30T00:50:55.867Z,12.17
2019-04-30T00:53:26.095Z,11.57
2019-04-30T00:55:55.610Z,14.03
2019-04-30T00:58:30.246Z,13.10
2019-04-30T01:01:10.443Z,13.17
2019-04-30T01:03:46.387Z,11.43
2019-04-30T01:06:11.378Z,11.37
2019-04-30T01:08:46.144Z,13.80
2019-04-30T01:11:25.381Z,10.07
2019-04-30T01:13:55.786Z,9.47
2019-04-30T01:16:30.113Z,7.87
2019-04-30T01:18:56.284Z,9.07
2019-04-30T01:21:24.712Z,7.03
2019-04-30T01:23:55.421Z,8.30
2019-04-30T01:26:27.751Z,7.17
2019-04-30T01:28:58.520Z,9.73
2019-04-30T01:31:33.004Z,10.13
2019-04-30T01:33:59.042Z,20.97
2019-04-30T01:36:29.378Z,13.87
2019-04-30T01:38:59.234Z,12.63
2019-04-30T01:41:31.331Z,10.50
2019-04-30T01:43:58.527Z,11.03
2019-04-30T01:46:29.158Z,8.70
2019-04-30T01:48:58.841Z,9.47
2019-04-30T01:51:28.600Z,11.17
2019-04-30T01:53:56.946Z,11.83
2019-04-30T01:56:31.988Z,10.03
2019-04-30T01:59:12.644Z,11.07
2019-04-30T02:01:45.284Z,10.87
2019-04-30T02:04:16.984Z,15.07
2019-04-30T02:06:45.159Z,13.93
2019-04-30T02:09:15.788Z,11.00
2019-04-30T02:11:46.997Z,14.53
2019-04-30T02:14:16.490Z,12.47
2019-04-30T02:16:44.731Z,14.73
2019-04-30T02:19:18.807Z,12.90
2019-04-30T02:21:49.629Z,14.70
2019-04-30T02:24:20.100Z,14.17
2019-04-30T02:26:52.435Z,14.50
2019-04-30T02:29:23.021Z,16.83
2019-04-30T02:31:53.910Z,14.50
2019-04-30T02:34:26.779Z,14.53
2019-04-30T02:37:09.803Z,15.87
2019-04-30T02:39:40.857Z,16.40
2019-04-30T02:42:13.275Z,16.47
2019-04-30T02:44:44.132Z,19.60
2019-04-30T02:47:15.105Z,18.43
2019-04-30T02:49:53.475Z,18.30
2019-04-30T02:52:20.811Z,15.43
2019-04-30T02:54:49.979Z,15.00
2019-04-30T02:57:20.498Z,10.70
2019-04-30T03:00:06.113Z,12.07
2019-04-30T03:02:34.557Z,9.73
2019-04-30T03:05:02.886Z,8.50
2019-04-30T03:07:32.073Z,8.63
2019-04-30T03:10:00.253Z,8.10
2019-04-30T03:12:33.108Z,9.40
2019-04-30T03:15:00.481Z,9.43
2019-04-30T03:17:50.602Z,10.63
2019-04-30T03:20:35.754Z,7.90
2019-04-30T03:23:03.044Z,10.03
2019-04-30T03:25:36.150Z,9.50
2019-04-30T03:28:04.600Z,10.10
2019-04-30T03:30:35.773Z,7.77
2019-04-30T03:33:03.913Z,10.00
2019-04-30T03:35:32.769Z,9.20
2019-04-30T03:38:01.251Z,8.30
2019-04-30T03:40:30.194Z,9.20
2019-04-30T03:42:59.742Z,9.60
2019-04-30T03:45:30.192Z,8.77
2019-04-30T03:48:00.278Z,9.47
2019-04-30T03:50:32.896Z,10.67
2019-04-30T03:53:00.449Z,8.47
2019-04-30T03:55:29.908Z,8.93
2019-04-30T03:58:00.170Z,8.87
2019-04-30T04:00:30.240Z,12.53
2019-04-30T04:02:59.886Z,15.10
2019-04-30T04:05:30.467Z,9.80
2019-04-30T04:08:00.352Z,13.37
2019-04-30T04:10:31.575Z,8.43
2019-04-30T04:13:02.188Z,15.67
2019-04-30T04:15:31.033Z,17.83
2019-04-30T04:18:00.336Z,14.50
2019-04-30T04:20:29.846Z,19.93
2019-04-30T04:22:59.845Z,14.73
2019-04-30T04:25:29.944Z,13.87
2019-04-30T04:28:00.415Z,10.60
2019-04-30T04:30:29.768Z,10.20
2019-04-30T04:32:59.870Z,7.50
2019-04-30T04:35:30.430Z,7.13
2019-04-30T04:38:02.914Z,9.33
2019-04-30T04:40:33.448Z,11.87
2019-04-30T04:43:04.826Z,19.10
2019-04-30T04:45:33.581Z,19.07
2019-04-30T04:48:04.570Z,21.93
2019-04-30T04:50:32.982Z,26.47
2019-04-30T04:53:01.144Z,17.10
2019-04-30T04:55:31.731Z,20.17
2019-04-30T04:58:02.502Z,28.17
2019-04-30T05:00:30.768Z,21.47
2019-04-30T05:03:09.476Z,19.43
2019-04-30T05:05:39.788Z,17.73
2019-04-30T05:08:10.190Z,20.07
2019-04-30T05:10:40.674Z,20.50
2019-04-30T05:13:09.747Z,18.87
2019-04-30T05:15:39.041Z,12.93
2019-04-30T05:18:10.000Z,11.00
2019-04-30T05:20:41.282Z,19.77
2019-04-30T05:23:21.562Z,21.67
2019-04-30T05:25:49.084Z,21.50
2019-04-30T05:28:20.502Z,13.03
2019-04-30T05:30:49.416Z,7.83
2019-04-30T05:33:18.610Z,11.63
2019-04-30T05:35:49.643Z,7.43
2019-04-30T05:38:19.941Z,9.37
2019-04-30T05:40:49.551Z,11.10
2019-04-30T05:43:19.194Z,12.27
2019-04-30T05:45:49.998Z,15.20
2019-04-30T05:48:23.075Z,31.07
2019-04-30T05:50:59.124Z,27.30
2019-04-30T05:53:28.712Z,24.83
2019-04-30T05:56:03.244Z,18.63
2019-04-30T05:58:32.030Z,20.57
2019-04-30T06:01:00.702Z,19.50
2019-04-30T06:03:33.027Z,17.93
2019-04-30T06:05:59.051Z,17.77
2019-04-30T06:08:29.173Z,20.37
2019-04-30T06:11:09.348Z,12.87
2019-04-30T06:13:58.902Z,17.00
2019-04-30T06:16:30.200Z,11.10
2019-04-30T06:19:00.679Z,12.40
2019-04-30T06:21:31.625Z,13.47
2019-04-30T06:23:59.851Z,12.70
2019-04-30T06:26:29.534Z,14.83
2019-04-30T06:28:59.259Z,12.13
2019-04-30T06:31:34.785Z,11.77
2019-04-30T06:34:00.279Z,12.40
2019-04-30T06:36:30.752Z,11.27
2019-04-30T06:39:05.033Z,14.13
2019-04-30T06:41:33.397Z,13.47
2019-04-30T06:44:01.556Z,10.27
2019-04-30T06:46:30.629Z,9.83
2019-04-30T06:48:59.553Z,10.37
2019-04-30T06:51:30.796Z,7.57
2019-04-30T06:54:01.633Z,6.23
2019-04-30T06:56:29.875Z,8.20
2019-04-30T06:58:59.036Z,6.53
2019-04-30T07:01:29.794Z,5.63
2019-04-30T07:04:00.745Z,7.30
2019-04-30T07:06:32.787Z,9.03
2019-04-30T07:09:20.800Z,9.50
2019-04-30T07:11:50.637Z,9.43
2019-04-30T07:14:21.303Z,8.10
2019-04-30T07:16:54.116Z,10.00
2019-04-30T07:19:32.920Z,8.80
2019-04-30T07:21:59.413Z,7.47
2019-04-30T07:24:29.635Z,7.00
2019-04-30T07:27:02.774Z,7.33
2019-04-30T07:29:32.595Z,7.50
2019-04-30T07:32:01.061Z,7.83
2019-04-30T07:34:36.656Z,8.67
2019-04-30T07:39:39.106Z,5.87
2019-04-30T07:42:09.936Z,4.60
2019-04-30T07:44:39.452Z,5.10
2019-04-30T07:47:09.669Z,4.70
2019-04-30T07:49:49.968Z,4.03
2019-04-30T07:52:11.544Z,4.20
2019-04-30T07:54:39.830Z,4.40
2019-04-30T07:57:09.469Z,6.97
2019-04-30T07:59:39.669Z,6.63
2019-04-30T08:02:14.526Z,8.97
2019-04-30T08:04:44.947Z,12.13
2019-04-30T08:07:14.049Z,7.40
2019-04-30T08:09:36.914Z,7.90
2019-04-30T08:09:45.051Z,8.60
2019-04-30T08:12:22.251Z,9.47
2019-04-30T08:14:49.600Z,7.10
2019-04-30T08:17:20.821Z,5.10
2019-04-30T08:19:49.325Z,6.73
2019-04-30T08:22:19.673Z,5.80
2019-04-30T08:24:49.172Z,6.90
2019-04-30T08:27:19.173Z,5.73
2019-04-30T08:29:49.421Z,5.30
2019-04-30T08:32:19.998Z,3.50
2019-04-30T08:34:50.571Z,3.23
2019-04-30T08:37:21.320Z,5.00
2019-04-30T08:39:54.138Z,6.50
2019-04-30T08:42:31.656Z,4.83
2019-04-30T08:44:59.502Z,4.80
2019-04-30T08:47:30.092Z,5.40
2019-04-30T08:50:02.731Z,3.73
2019-04-30T08:52:30.818Z,3.53
2019-04-30T08:55:13.505Z,4.23
2019-04-30T08:57:32.400Z,4.20
2019-04-30T09:00:00.658Z,4.60
2019-04-30T09:02:29.336Z,5.10
2019-04-30T09:05:00.484Z,6.93
2019-04-30T09:07:32.617Z,10.00
2019-04-30T09:10:04.775Z,10.13
2019-04-30T09:12:32.839Z,5.43
2019-04-30T09:15:01.291Z,5.90
2019-04-30T09:17:29.899Z,6.10
2019-04-30T09:20:00.299Z,8.60
2019-04-30T09:22:31.255Z,6.67
2019-04-30T09:24:59.697Z,6.37
2019-04-30T09:27:29.473Z,9.13
2019-04-30T09:30:00.660Z,10.13
2019-04-30T09:32:29.613Z,8.00
2019-04-30T09:34:58.763Z,10.33
2019-04-30T09:37:27.164Z,8.80
2019-04-30T09:39:55.448Z,11.87
2019-04-30T09:42:23.680Z,13.17
2019-04-30T09:44:57.009Z,12.63
2019-04-30T09:47:24.355Z,14.40
2019-04-30T09:49:53.978Z,14.40
2019-04-30T09:52:22.425Z,18.77
2019-04-30T09:54:51.535Z,8.47
2019-04-30T09:57:20.827Z,9.77
2019-04-30T09:59:51.451Z,7.97
2019-04-30T10:02:19.651Z,8.47
2019-04-30T10:04:48.769Z,9.97
2019-04-30T10:07:20.032Z,12.33
2019-04-30T10:09:50.993Z,12.40
2019-04-30T10:12:19.702Z,15.83
2019-04-30T10:14:49.488Z,22.20
2019-04-30T10:17:21.064Z,25.40
2019-04-30T10:19:49.332Z,34.43
2019-04-30T10:22:17.612Z,31.10
2019-04-30T10:24:46.234Z,32.33
2019-04-30T10:27:15.720Z,30.60
2019-04-30T10:29:43.907Z,37.60
2019-04-30T10:32:12.413Z,37.37
2019-04-30T10:34:41.550Z,43.23
2019-04-30T10:37:10.194Z,32.00
2019-04-30T10:39:38.985Z,32.93
2019-04-30T10:42:07.860Z,38.13
2019-04-30T10:44:36.340Z,36.57
2019-04-30T10:47:04.560Z,36.53
2019-04-30T10:49:32.771Z,32.73
2019-04-30T10:52:01.334Z,29.40
2019-04-30T10:54:29.565Z,33.03
2019-04-30T10:56:59.135Z,39.47
2019-04-30T10:59:28.007Z,30.50
2019-04-30T11:01:56.576Z,37.17
2019-04-30T11:04:25.240Z,34.53
2019-04-30T11:06:53.546Z,45.10
2019-04-30T11:09:21.860Z,40.27
2019-04-30T11:11:50.081Z,38.77
2019-04-30T11:14:18.442Z,42.30
2019-04-30T11:16:46.946Z,34.77
2019-04-30T11:19:15.430Z,38.13
2019-04-30T11:21:44.145Z,62.67
2019-04-30T11:24:12.959Z,41.37
2019-04-30T11:26:42.501Z,60.30
2019-04-30T11:29:12.382Z,36.33
2019-04-30T11:31:45.466Z,31.10
2019-04-30T11:34:15.146Z,22.17
2019-04-30T11:36:43.433Z,21.83
2019-04-30T11:39:13.668Z,20.90
2019-04-30T11:41:42.013Z,19.77
2019-04-30T11:44:10.505Z,20.83
2019-04-30T11:46:49.909Z,26.17
2019-04-30T11:49:20.167Z,30.43
2019-04-30T11:51:47.999Z,19.47
2019-04-30T11:54:18.812Z,22.00
2019-04-30T11:56:50.227Z,22.10
2019-04-30T11:59:19.109Z,18.50
2019-04-30T12:01:49.620Z,16.57
2019-04-30T12:04:20.744Z,16.60
2019-04-30T12:06:49.257Z,26.57
2019-04-30T12:09:35.832Z,28.70
2019-04-30T12:12:04.526Z,25.60
2019-04-30T12:14:32.693Z,20.30
2019-04-30T12:17:01.365Z,16.53
2019-04-30T12:19:29.841Z,17.93
2019-04-30T12:21:59.353Z,18.83
2019-04-30T12:24:30.199Z,13.40
2019-04-30T12:26:59.569Z,18.90
2019-04-30T12:29:29.127Z,37.77
2019-04-30T12:31:58.441Z,23.73
2019-04-30T12:34:26.702Z,35.20
2019-04-30T12:36:54.926Z,23.97
2019-04-30T12:39:25.932Z,30.40
2019-04-30T12:41:54.114Z,22.87
2019-04-30T12:44:22.326Z,21.47
2019-04-30T12:46:50.681Z,24.53
2019-04-30T12:49:19.315Z,29.00
2019-04-30T12:52:05.882Z,17.83
2019-04-30T12:54:38.597Z,15.73
2019-04-30T12:57:11.287Z,15.33
2019-04-30T12:59:39.536Z,13.00
2019-04-30T13:02:09.113Z,16.10
2019-04-30T13:04:39.409Z,15.97
2019-04-30T13:07:10.353Z,15.40
2019-04-30T13:09:39.905Z,13.93
2019-04-30T13:12:10.379Z,12.00
2019-04-30T13:14:50.812Z,14.73
2019-04-30T13:17:08.442Z,12.57
2019-04-30T13:19:36.664Z,41.87
2019-04-30T13:22:05.152Z,30.33
2019-04-30T13:24:33.839Z,24.33
2019-04-30T13:27:02.295Z,16.67
2019-04-30T13:29:32.109Z,25.43
2019-04-30T13:32:00.321Z,20.20
2019-04-30T13:34:46.825Z,14.40
2019-04-30T13:37:15.034Z,18.17
2019-04-30T13:39:53.130Z,20.97
2019-04-30T13:42:25.786Z,21.97
2019-04-30T13:44:54.093Z,21.63
2019-04-30T13:47:22.304Z,19.83
2019-04-30T13:49:51.094Z,19.23
2019-04-30T13:52:19.667Z,35.77
2019-04-30T13:54:48.688Z,22.20
2019-04-30T13:57:17.083Z,21.33
2019-04-30T13:59:45.740Z,17.80
2019-04-30T14:02:14.028Z,14.77
2019-04-30T14:04:46.826Z,15.20
2019-04-30T14:07:25.922Z,17.30
2019-04-30T14:09:54.452Z,14.60
2019-04-30T14:12:22.886Z,17.03
2019-04-30T14:14:51.113Z,25.67
2019-04-30T14:17:19.836Z,18.77
2019-04-30T14:19:48.215Z,22.40
2019-04-30T14:22:16.508Z,20.13
2019-04-30T14:24:44.867Z,21.93
2019-04-30T14:27:13.564Z,18.97
2019-04-30T14:29:42.643Z,21.43
2019-04-30T14:32:11.147Z,17.90
2019-04-30T14:34:39.683Z,23.97
2019-04-30T14:37:09.336Z,21.80
2019-04-30T14:39:37.895Z,30.20
2019-04-30T14:42:07.609Z,28.50
2019-04-30T14:44:37.348Z,25.07
2019-04-30T14:47:21.959Z,21.63
2019-04-30T14:50:09.916Z,25.27
2019-04-30T14:52:49.779Z,87.77
2019-04-30T14:55:26.428Z,77.13
2019-04-30T14:58:09.669Z,24.73
2019-04-30T15:00:46.014Z,26.30
2019-04-30T15:03:16.466Z,34.27
2019-04-30T15:05:49.412Z,41.70
2019-04-30T15:08:16.391Z,37.13
2019-04-30T15:10:44.771Z,45.53
2019-04-30T15:13:13.000Z,36.93
2019-04-30T15:15:41.630Z,30.10
2019-04-30T15:18:10.005Z,26.73
2019-04-30T15:20:39.855Z,25.87
2019-04-30T15:23:09.962Z,33.93
2019-04-30T15:25:38.976Z,32.43
2019-04-30T15:28:07.467Z,28.97
2019-04-30T15:30:36.132Z,27.43
2019-04-30T15:33:14.792Z,32.17
2019-04-30T15:35:43.517Z,41.53
2019-04-30T15:38:13.238Z,34.50
2019-04-30T15:40:41.528Z,26.77
2019-04-30T15:43:09.944Z,33.70
2019-04-30T15:45:39.172Z,32.37
2019-04-30T15:48:08.700Z,37.10
2019-04-30T15:50:39.165Z,49.03
2019-04-30T15:53:07.162Z,49.63
2019-04-30T15:55:35.639Z,87.60
2019-04-30T15:58:05.476Z,36.57
2019-04-30T16:00:34.238Z,70.70
2019-04-30T16:03:22.189Z,44.03
2019-04-30T16:05:52.090Z,33.23
2019-04-30T16:08:25.054Z,25.77
2019-04-30T16:11:10.401Z,32.50
2019-04-30T16:13:56.022Z,32.97
2019-04-30T16:16:28.205Z,29.10
2019-04-30T16:18:59.729Z,29.20
2019-04-30T16:21:29.289Z,33.73
2019-04-30T16:23:58.507Z,26.60
2019-04-30T16:26:31.582Z,24.53
2019-04-30T16:29:03.827Z,25.30
2019-04-30T16:31:34.223Z,25.13
2019-04-30T16:34:02.608Z,25.27
2019-04-30T16:36:30.874Z,24.63
2019-04-30T16:38:59.398Z,33.50
2019-04-30T16:41:31.822Z,26.83
2019-04-30T16:44:00.804Z,33.63
2019-04-30T16:46:31.155Z,36.43
2019-04-30T16:49:00.150Z,35.63
2019-04-30T16:51:29.008Z,42.80
2019-04-30T16:53:58.637Z,35.73
2019-04-30T16:56:28.618Z,35.73
2019-04-30T16:59:02.057Z,38.13
2019-04-30T17:01:35.012Z,39.40
2019-04-30T17:04:15.755Z,68.23
2019-04-30T17:06:46.154Z,34.83
2019-04-30T17:09:25.543Z,37.93
2019-04-30T17:12:03.231Z,42.23
2019-04-30T17:14:33.253Z,64.70
2019-04-30T17:17:01.671Z,58.50
2019-04-30T17:19:30.243Z,65.90
2019-04-30T17:21:59.992Z,77.77
2019-04-30T17:24:30.128Z,82.53
2019-04-30T17:26:59.263Z,85.77
2019-04-30T17:29:28.550Z,107.20
2019-04-30T17:31:56.737Z,119.80
2019-04-30T17:34:24.893Z,154.00
2019-04-30T17:36:53.145Z,167.50
2019-04-30T17:39:27.856Z,124.90
2019-04-30T17:41:56.046Z,124.53
2019-04-30T17:44:28.807Z,194.50
2019-04-30T17:46:57.446Z,151.13
2019-04-30T17:49:27.763Z,107.53
2019-04-30T17:51:56.177Z,154.17
2019-04-30T17:54:35.043Z,160.37
2019-04-30T17:56:56.905Z,148.33
2019-04-30T17:59:25.261Z,142.03
2019-04-30T18:01:59.479Z,138.07
2019-04-30T18:04:29.545Z,155.80
2019-04-30T18:07:02.804Z,114.00
2019-04-30T18:09:30.942Z,126.83
2019-04-30T18:11:59.700Z,120.43
2019-04-30T18:14:31.694Z,111.63
2019-04-30T18:16:59.876Z,184.03
2019-04-30T18:19:31.528Z,85.20
2019-04-30T18:22:03.512Z,83.53
2019-04-30T18:24:38.900Z,80.17
2019-04-30T18:27:20.990Z,72.27
2019-04-30T18:29:48.848Z,88.60
2019-04-30T18:32:17.099Z,79.30
2019-04-30T18:34:45.352Z,76.37
2019-04-30T18:37:18.925Z,78.83
2019-04-30T18:39:47.386Z,78.43
2019-04-30T18:42:15.721Z,95.00
2019-04-30T18:44:45.114Z,98.90
2019-04-30T18:47:16.576Z,100.33
2019-04-30T18:49:44.846Z,123.07
2019-04-30T18:52:18.812Z,140.00
2019-04-30T18:54:49.414Z,80.83
2019-04-30T18:57:18.568Z,100.37
2019-04-30T18:59:47.358Z,96.63
2019-04-30T19:02:15.651Z,109.47
2019-04-30T19:04:43.979Z,111.50
2019-04-30T19:07:19.676Z,106.00
2019-04-30T19:09:59.177Z,108.27
2019-04-30T19:12:48.926Z,75.37
2019-04-30T19:15:22.171Z,110.93
2019-04-30T19:17:52.399Z,105.23
2019-04-30T19:20:23.114Z,107.80
2019-04-30T19:22:53.375Z,102.80
2019-04-30T19:25:22.925Z,98.27
2019-04-30T19:28:09.559Z,75.90
2019-04-30T19:30:32.539Z,91.53
2019-04-30T19:33:01.003Z,88.60
2019-04-30T19:35:29.362Z,79.97
2019-04-30T19:37:59.238Z,83.90
2019-04-30T19:40:28.624Z,81.20
2019-04-30T19:42:57.193Z,98.50
2019-04-30T19:45:25.489Z,72.37
2019-04-30T19:47:54.801Z,68.23
2019-04-30T19:50:23.478Z,62.83
2019-04-30T19:52:52.341Z,116.00
2019-04-30T19:55:20.850Z,104.50
2019-04-30T19:57:51.048Z,100.93
2019-04-30T20:00:19.016Z,125.53
2019-04-30T20:02:48.699Z,149.70
2019-04-30T20:05:19.259Z,128.87
2019-04-30T20:07:47.086Z,122.60
2019-04-30T20:10:15.906Z,155.67
2019-04-30T20:12:44.134Z,162.63
2019-04-30T20:15:19.349Z,119.80
2019-04-30T20:17:43.246Z,116.13
2019-04-30T20:20:11.427Z,114.20
2019-04-30T20:22:39.812Z,120.63
2019-04-30T20:25:09.148Z,110.10
2019-04-30T20:27:39.556Z,122.47
2019-04-30T20:30:09.602Z,130.13
2019-04-30T20:32:37.878Z,127.10
2019-04-30T20:35:07.090Z,122.07
2019-04-30T20:37:36.951Z,156.00
2019-04-30T20:40:08.670Z,157.10
2019-04-30T20:42:40.028Z,162.43
2019-04-30T20:45:09.235Z,134.63
2019-04-30T20:47:39.310Z,138.27
2019-04-30T20:50:08.313Z,136.27
2019-04-30T20:52:38.945Z,91.40
2019-04-30T20:55:07.435Z,120.80
2019-04-30T20:57:36.182Z,141.97
2019-04-30T21:00:06.061Z,147.20
2019-04-30T21:02:34.743Z,167.87
2019-04-30T21:05:02.962Z,138.77
2019-04-30T21:07:31.364Z,154.93
2019-04-30T21:10:00.432Z,140.07
2019-04-30T21:12:30.752Z,133.40
2019-04-30T21:14:59.627Z,114.20
2019-04-30T21:17:28.278Z,128.73
2019-04-30T21:19:56.619Z,125.23
2019-04-30T21:22:25.014Z,129.07
2019-04-30T21:24:53.461Z,121.07
2019-04-30T21:27:21.684Z,129.00
2019-04-30T21:29:51.135Z,126.90
2019-04-30T21:32:38.803Z,104.53
2019-04-30T21:35:24.609Z,107.73
2019-04-30T21:38:01.709Z,96.90
2019-04-30T21:40:30.074Z,86.17
2019-04-30T21:42:58.363Z,104.33
2019-04-30T21:45:29.239Z,95.50
2019-04-30T21:48:01.454Z,82.73
2019-04-30T21:50:29.754Z,69.47
2019-04-30T21:52:59.701Z,91.70
2019-04-30T21:55:29.696Z,88.13
2019-04-30T21:57:59.442Z,70.90
2019-04-30T22:00:42.732Z,81.07
2019-04-30T22:03:11.084Z,62.10
2019-04-30T22:05:39.443Z,60.20
2019-04-30T22:08:09.072Z,98.30
2019-04-30T22:10:37.849Z,95.77
2019-04-30T22:13:06.058Z,87.27
2019-04-30T22:15:34.580Z,89.40
2019-04-30T22:18:02.795Z,69.27
2019-04-30T22:20:31.472Z,77.17
2019-04-30T22:22:59.784Z,68.00
2019-04-30T22:25:29.346Z,56.80
2019-04-30T22:27:58.013Z,43.77
2019-04-30T22:30:26.260Z,39.37
2019-04-30T22:32:54.473Z,42.57
2019-04-30T22:35:24.689Z,37.07
2019-04-30T22:37:54.870Z,50.80
2019-04-30T22:40:23.451Z,48.03
2019-04-30T22:42:51.824Z,63.97
2019-04-30T22:45:21.856Z,61.97
2019-04-30T22:47:50.373Z,67.50
2019-04-30T22:50:18.903Z,54.77
2019-04-30T22:52:47.616Z,55.20
2019-04-30T22:55:17.087Z,52.70
2019-04-30T22:57:45.452Z,50.60
2019-04-30T23:00:15.388Z,49.13
2019-04-30T23:02:45.234Z,35.90
2019-04-30T23:05:15.417Z,55.20
2019-04-30T23:07:43.672Z,37.17
2019-04-30T23:10:11.880Z,41.00
2019-04-30T23:12:40.315Z,69.07
2019-04-30T23:15:08.839Z,45.90
2019-04-30T23:17:37.196Z,90.37
2019-04-30T23:20:06.319Z,41.00
2019-04-30T23:22:34.972Z,192.20
2019-04-30T23:25:04.618Z,43.70
2019-04-30T23:27:32.973Z,67.17
2019-04-30T23:30:03.448Z,41.00
2019-04-30T23:32:31.385Z,71.50
2019-04-30T23:35:00.108Z,38.73
2019-04-30T23:37:28.524Z,32.33
2019-04-30T23:39:57.181Z,25.03
2019-04-30T23:42:26.293Z,25.27
2019-04-30T23:44:54.815Z,30.67
2019-04-30T23:47:23.332Z,30.83
2019-04-30T23:49:51.722Z,32.13
2019-04-30T23:52:20.445Z,35.27
2019-04-30T23:54:49.250Z,32.00
2019-04-30T23:57:19.160Z,31.97
2019-04-30T23:59:47.400Z,35.60
